sensor_id;sensor_type;location;lat;lon;timestamp;temperature;humidity
79698;SHT31;69168;42.708;23.286;2024-02-26T00:00:59;9.47;73.83
79698;SHT31;69168;42.708;23.286;2024-02-26T00:03:25;9.47;73.91
79698;SHT31;69168;42.708;23.286;2024-02-26T00:05:50;9.50;74.24
79698;SHT31;69168;42.708;23.286;2024-02-26T00:08:16;9.48;73.78
79698;SHT31;69168;42.708;23.286;2024-02-26T00:10:41;9.33;73.68
79698;SHT31;69168;42.708;23.286;2024-02-26T00:13:08;9.42;73.64
79698;SHT31;69168;42.708;23.286;2024-02-26T00:15:33;9.33;73.77
79698;SHT31;69168;42.708;23.286;2024-02-26T00:18:01;9.27;73.83
79698;SHT31;69168;42.708;23.286;2024-02-26T00:20:26;9.26;73.89
79698;SHT31;69168;42.708;23.286;2024-02-26T00:22:52;9.26;73.88
79698;SHT31;69168;42.708;23.286;2024-02-26T00:25:17;9.20;74.08
79698;SHT31;69168;42.708;23.286;2024-02-26T00:27:43;9.20;74.36
79698;SHT31;69168;42.708;23.286;2024-02-26T00:30:10;9.18;74.45
79698;SHT31;69168;42.708;23.286;2024-02-26T00:32:35;9.27;74.46
79698;SHT31;69168;42.708;23.286;2024-02-26T00:35:01;9.29;74.09
79698;SHT31;69168;42.708;23.286;2024-02-26T00:37:26;9.39;73.47
79698;SHT31;69168;42.708;23.286;2024-02-26T00:39:52;9.25;73.67
79698;SHT31;69168;42.708;23.286;2024-02-26T00:42:19;9.23;73.71
79698;SHT31;69168;42.708;23.286;2024-02-26T00:44:44;9.22;74.36
79698;SHT31;69168;42.708;23.286;2024-02-26T00:47:10;9.29;74.85
79698;SHT31;69168;42.708;23.286;2024-02-26T00:49:37;9.35;74.53
79698;SHT31;69168;42.708;23.286;2024-02-26T00:52:02;9.33;74.23
79698;SHT31;69168;42.708;23.286;2024-02-26T00:54:28;9.25;74.36
79698;SHT31;69168;42.708;23.286;2024-02-26T00:56:54;9.26;74.14
79698;SHT31;69168;42.708;23.286;2024-02-26T00:59:19;9.23;74.02
79698;SHT31;69168;42.708;23.286;2024-02-26T01:01:45;9.35;74.25
79698;SHT31;69168;42.708;23.286;2024-02-26T01:04:10;9.16;74.74
79698;SHT31;69168;42.708;23.286;2024-02-26T01:06:37;9.19;75.36
79698;SHT31;69168;42.708;23.286;2024-02-26T01:09:02;8.91;75.97
79698;SHT31;69168;42.708;23.286;2024-02-26T01:11:28;8.88;76.26
79698;SHT31;69168;42.708;23.286;2024-02-26T01:13:53;8.84;76.52
79698;SHT31;69168;42.708;23.286;2024-02-26T01:16:22;8.85;76.48
79698;SHT31;69168;42.708;23.286;2024-02-26T01:18:48;8.84;76.64
79698;SHT31;69168;42.708;23.286;2024-02-26T01:21:13;8.84;76.66
79698;SHT31;69168;42.708;23.286;2024-02-26T01:23:39;8.89;76.80
79698;SHT31;69168;42.708;23.286;2024-02-26T01:26:05;8.93;76.37
79698;SHT31;69168;42.708;23.286;2024-02-26T01:28:31;9.09;75.93
79698;SHT31;69168;42.708;23.286;2024-02-26T01:30:56;9.18;75.44
79698;SHT31;69168;42.708;23.286;2024-02-26T01:33:22;9.23;75.40
79698;SHT31;69168;42.708;23.286;2024-02-26T01:35:47;9.19;75.41
79698;SHT31;69168;42.708;23.286;2024-02-26T01:38:13;9.29;75.30
79698;SHT31;69168;42.708;23.286;2024-02-26T01:40:38;9.30;75.02
79698;SHT31;69168;42.708;23.286;2024-02-26T01:43:04;9.37;74.94
79698;SHT31;69168;42.708;23.286;2024-02-26T01:45:29;9.35;74.85
79698;SHT31;69168;42.708;23.286;2024-02-26T01:47:55;9.37;74.93
79698;SHT31;69168;42.708;23.286;2024-02-26T01:50:22;9.39;74.80
79698;SHT31;69168;42.708;23.286;2024-02-26T01:52:49;9.37;74.81
79698;SHT31;69168;42.708;23.286;2024-02-26T01:55:15;9.35;74.94
79698;SHT31;69168;42.708;23.286;2024-02-26T01:57:43;9.33;75.17
79698;SHT31;69168;42.708;23.286;2024-02-26T02:00:09;9.39;75.01
79698;SHT31;69168;42.708;23.286;2024-02-26T02:02:36;9.35;75.12
79698;SHT31;69168;42.708;23.286;2024-02-26T02:05:02;9.26;75.23
79698;SHT31;69168;42.708;23.286;2024-02-26T02:07:28;9.29;75.14
79698;SHT31;69168;42.708;23.286;2024-02-26T02:09:54;9.43;74.81
79698;SHT31;69168;42.708;23.286;2024-02-26T02:12:20;9.43;74.50
79698;SHT31;69168;42.708;23.286;2024-02-26T02:14:46;9.36;74.89
79698;SHT31;69168;42.708;23.286;2024-02-26T02:17:12;9.29;75.07
79698;SHT31;69168;42.708;23.286;2024-02-26T02:19:38;9.42;74.75
79698;SHT31;69168;42.708;23.286;2024-02-26T02:22:03;9.32;74.87
79698;SHT31;69168;42.708;23.286;2024-02-26T02:24:29;9.30;74.98
79698;SHT31;69168;42.708;23.286;2024-02-26T02:26:55;9.26;75.29
79698;SHT31;69168;42.708;23.286;2024-02-26T02:29:20;9.33;75.21
79698;SHT31;69168;42.708;23.286;2024-02-26T02:31:46;9.35;75.08
79698;SHT31;69168;42.708;23.286;2024-02-26T02:34:12;9.26;75.29
79698;SHT31;69168;42.708;23.286;2024-02-26T02:36:53;9.29;75.45
79698;SHT31;69168;42.708;23.286;2024-02-26T02:39:19;9.39;75.37
79698;SHT31;69168;42.708;23.286;2024-02-26T02:41:45;9.29;75.52
79698;SHT31;69168;42.708;23.286;2024-02-26T02:44:11;9.37;75.28
79698;SHT31;69168;42.708;23.286;2024-02-26T02:46:37;9.61;74.82
79698;SHT31;69168;42.708;23.286;2024-02-26T02:49:02;9.26;75.62
79698;SHT31;69168;42.708;23.286;2024-02-26T02:51:28;9.14;76.20
79698;SHT31;69168;42.708;23.286;2024-02-26T02:53:53;9.25;75.94
79698;SHT31;69168;42.708;23.286;2024-02-26T02:56:19;9.30;75.52
79698;SHT31;69168;42.708;23.286;2024-02-26T02:58:44;9.36;75.32
79698;SHT31;69168;42.708;23.286;2024-02-26T03:01:10;9.39;75.44
79698;SHT31;69168;42.708;23.286;2024-02-26T03:03:36;9.22;76.09
79698;SHT31;69168;42.708;23.286;2024-02-26T03:06:02;9.18;76.64
79698;SHT31;69168;42.708;23.286;2024-02-26T03:08:28;9.12;76.82
79698;SHT31;69168;42.708;23.286;2024-02-26T03:10:54;9.11;76.73
79698;SHT31;69168;42.708;23.286;2024-02-26T03:13:20;9.14;76.86
79698;SHT31;69168;42.708;23.286;2024-02-26T03:15:45;9.18;76.81
79698;SHT31;69168;42.708;23.286;2024-02-26T03:18:11;9.26;76.51
79698;SHT31;69168;42.708;23.286;2024-02-26T03:20:36;9.32;76.30
79698;SHT31;69168;42.708;23.286;2024-02-26T03:23:02;9.36;76.16
79698;SHT31;69168;42.708;23.286;2024-02-26T03:25:28;9.26;76.16
79698;SHT31;69168;42.708;23.286;2024-02-26T03:27:53;9.29;76.35
79698;SHT31;69168;42.708;23.286;2024-02-26T03:30:19;9.27;76.71
79698;SHT31;69168;42.708;23.286;2024-02-26T03:32:45;9.27;76.66
79698;SHT31;69168;42.708;23.286;2024-02-26T03:35:12;9.26;76.59
79698;SHT31;69168;42.708;23.286;2024-02-26T03:37:37;9.27;76.55
79698;SHT31;69168;42.708;23.286;2024-02-26T03:40:03;9.29;76.32
79698;SHT31;69168;42.708;23.286;2024-02-26T03:42:29;9.33;76.42
79698;SHT31;69168;42.708;23.286;2024-02-26T03:44:55;9.35;76.29
79698;SHT31;69168;42.708;23.286;2024-02-26T03:47:20;9.35;76.16
79698;SHT31;69168;42.708;23.286;2024-02-26T03:49:46;9.42;75.94
79698;SHT31;69168;42.708;23.286;2024-02-26T03:52:11;9.44;75.84
79698;SHT31;69168;42.708;23.286;2024-02-26T03:54:37;9.42;75.81
79698;SHT31;69168;42.708;23.286;2024-02-26T03:57:02;9.37;75.66
79698;SHT31;69168;42.708;23.286;2024-02-26T03:59:28;9.37;76.12
79698;SHT31;69168;42.708;23.286;2024-02-26T04:01:53;9.37;76.01
79698;SHT31;69168;42.708;23.286;2024-02-26T04:04:19;9.43;75.73
79698;SHT31;69168;42.708;23.286;2024-02-26T04:06:48;9.44;75.62
79698;SHT31;69168;42.708;23.286;2024-02-26T04:09:14;9.35;75.84
79698;SHT31;69168;42.708;23.286;2024-02-26T04:11:39;9.36;76.20
79698;SHT31;69168;42.708;23.286;2024-02-26T04:14:05;9.36;76.30
79698;SHT31;69168;42.708;23.286;2024-02-26T04:16:34;9.36;76.28
79698;SHT31;69168;42.708;23.286;2024-02-26T04:19:01;9.39;75.82
79698;SHT31;69168;42.708;23.286;2024-02-26T04:21:26;9.36;75.79
79698;SHT31;69168;42.708;23.286;2024-02-26T04:23:52;9.25;76.11
79698;SHT31;69168;42.708;23.286;2024-02-26T04:26:20;9.15;76.45
79698;SHT31;69168;42.708;23.286;2024-02-26T04:28:46;9.09;76.76
79698;SHT31;69168;42.708;23.286;2024-02-26T04:31:12;9.05;77.15
79698;SHT31;69168;42.708;23.286;2024-02-26T04:33:37;9.12;77.01
79698;SHT31;69168;42.708;23.286;2024-02-26T04:36:03;9.06;77.12
79698;SHT31;69168;42.708;23.286;2024-02-26T04:38:28;9.09;77.09
79698;SHT31;69168;42.708;23.286;2024-02-26T04:40:54;9.18;76.73
79698;SHT31;69168;42.708;23.286;2024-02-26T04:43:19;9.08;76.93
79698;SHT31;69168;42.708;23.286;2024-02-26T04:45:45;9.02;77.07
79698;SHT31;69168;42.708;23.286;2024-02-26T04:48:11;9.02;77.01
79698;SHT31;69168;42.708;23.286;2024-02-26T04:50:36;9.12;76.63
79698;SHT31;69168;42.708;23.286;2024-02-26T04:53:02;9.08;76.89
79698;SHT31;69168;42.708;23.286;2024-02-26T04:55:27;9.01;76.95
79698;SHT31;69168;42.708;23.286;2024-02-26T04:57:53;8.98;77.14
79698;SHT31;69168;42.708;23.286;2024-02-26T05:00:18;8.95;77.01
79698;SHT31;69168;42.708;23.286;2024-02-26T05:02:44;8.88;77.31
79698;SHT31;69168;42.708;23.286;2024-02-26T05:05:09;8.81;77.44
79698;SHT31;69168;42.708;23.286;2024-02-26T05:07:44;8.71;77.48
79698;SHT31;69168;42.708;23.286;2024-02-26T05:10:10;8.92;76.82
79698;SHT31;69168;42.708;23.286;2024-02-26T05:12:36;8.77;77.21
79698;SHT31;69168;42.708;23.286;2024-02-26T05:15:02;8.87;76.91
79698;SHT31;69168;42.708;23.286;2024-02-26T05:17:28;8.87;76.98
79698;SHT31;69168;42.708;23.286;2024-02-26T05:19:54;8.97;76.72
79698;SHT31;69168;42.708;23.286;2024-02-26T05:22:19;9.01;76.44
79698;SHT31;69168;42.708;23.286;2024-02-26T05:24:45;9.02;76.24
79698;SHT31;69168;42.708;23.286;2024-02-26T05:27:10;9.12;76.05
79698;SHT31;69168;42.708;23.286;2024-02-26T05:29:37;9.15;75.72
79698;SHT31;69168;42.708;23.286;2024-02-26T05:32:03;9.11;76.04
79698;SHT31;69168;42.708;23.286;2024-02-26T05:34:29;9.04;76.03
79698;SHT31;69168;42.708;23.286;2024-02-26T05:36:55;9.04;76.44
79698;SHT31;69168;42.708;23.286;2024-02-26T05:39:21;9.11;76.32
79698;SHT31;69168;42.708;23.286;2024-02-26T05:41:47;9.18;75.86
79698;SHT31;69168;42.708;23.286;2024-02-26T05:44:12;9.16;75.90
79698;SHT31;69168;42.708;23.286;2024-02-26T05:46:39;9.15;76.05
79698;SHT31;69168;42.708;23.286;2024-02-26T05:49:05;9.18;76.10
79698;SHT31;69168;42.708;23.286;2024-02-26T05:51:32;9.12;76.18
79698;SHT31;69168;42.708;23.286;2024-02-26T05:53:58;9.19;76.08
79698;SHT31;69168;42.708;23.286;2024-02-26T05:56:23;9.25;76.08
79698;SHT31;69168;42.708;23.286;2024-02-26T05:58:50;9.30;75.87
79698;SHT31;69168;42.708;23.286;2024-02-26T06:01:16;9.27;75.93
79698;SHT31;69168;42.708;23.286;2024-02-26T06:03:43;9.26;76.10
79698;SHT31;69168;42.708;23.286;2024-02-26T06:06:08;9.23;76.33
79698;SHT31;69168;42.708;23.286;2024-02-26T06:08:34;9.25;76.30
79698;SHT31;69168;42.708;23.286;2024-02-26T06:10:59;9.32;76.11
79698;SHT31;69168;42.708;23.286;2024-02-26T06:13:24;9.40;75.92
79698;SHT31;69168;42.708;23.286;2024-02-26T06:15:50;9.57;75.57
79698;SHT31;69168;42.708;23.286;2024-02-26T06:18:16;9.54;75.29
79698;SHT31;69168;42.708;23.286;2024-02-26T06:20:41;9.44;75.70
79698;SHT31;69168;42.708;23.286;2024-02-26T06:23:07;9.42;76.05
79698;SHT31;69168;42.708;23.286;2024-02-26T06:25:32;9.39;76.24
79698;SHT31;69168;42.708;23.286;2024-02-26T06:27:58;9.42;76.25
79698;SHT31;69168;42.708;23.286;2024-02-26T06:30:23;9.36;76.58
79698;SHT31;69168;42.708;23.286;2024-02-26T06:32:49;9.39;76.58
79698;SHT31;69168;42.708;23.286;2024-02-26T06:35:14;9.46;76.31
79698;SHT31;69168;42.708;23.286;2024-02-26T06:37:40;9.37;76.46
79698;SHT31;69168;42.708;23.286;2024-02-26T06:40:06;9.43;76.61
79698;SHT31;69168;42.708;23.286;2024-02-26T06:42:32;9.44;76.62
79698;SHT31;69168;42.708;23.286;2024-02-26T06:44:58;9.47;76.81
79698;SHT31;69168;42.708;23.286;2024-02-26T06:47:24;9.44;76.84
79698;SHT31;69168;42.708;23.286;2024-02-26T06:49:49;9.40;76.82
79698;SHT31;69168;42.708;23.286;2024-02-26T06:52:15;9.40;77.08
79698;SHT31;69168;42.708;23.286;2024-02-26T06:54:40;9.47;76.67
79698;SHT31;69168;42.708;23.286;2024-02-26T06:57:07;9.47;76.49
79698;SHT31;69168;42.708;23.286;2024-02-26T06:59:32;9.46;76.81
79698;SHT31;69168;42.708;23.286;2024-02-26T07:01:58;9.48;76.88
79698;SHT31;69168;42.708;23.286;2024-02-26T07:04:23;9.50;76.75
79698;SHT31;69168;42.708;23.286;2024-02-26T07:06:49;9.57;76.46
79698;SHT31;69168;42.708;23.286;2024-02-26T07:09:14;9.64;76.32
79698;SHT31;69168;42.708;23.286;2024-02-26T07:11:41;9.75;75.90
79698;SHT31;69168;42.708;23.286;2024-02-26T07:14:10;9.80;75.81
79698;SHT31;69168;42.708;23.286;2024-02-26T07:16:36;9.82;75.92
79698;SHT31;69168;42.708;23.286;2024-02-26T07:19:02;9.85;75.68
79698;SHT31;69168;42.708;23.286;2024-02-26T07:21:28;9.94;75.41
79698;SHT31;69168;42.708;23.286;2024-02-26T07:23:53;9.99;74.98
79698;SHT31;69168;42.708;23.286;2024-02-26T07:26:19;9.87;75.37
79698;SHT31;69168;42.708;23.286;2024-02-26T07:28:45;9.88;75.18
79698;SHT31;69168;42.708;23.286;2024-02-26T07:31:10;9.91;75.44
79698;SHT31;69168;42.708;23.286;2024-02-26T07:33:36;9.80;75.29
79698;SHT31;69168;42.708;23.286;2024-02-26T07:36:02;9.91;74.63
79698;SHT31;69168;42.708;23.286;2024-02-26T07:38:27;9.74;74.85
79698;SHT31;69168;42.708;23.286;2024-02-26T07:40:53;9.73;74.95
79698;SHT31;69168;42.708;23.286;2024-02-26T07:43:18;9.82;74.87
79698;SHT31;69168;42.708;23.286;2024-02-26T07:45:44;9.88;74.14
79698;SHT31;69168;42.708;23.286;2024-02-26T07:48:11;9.74;74.65
79698;SHT31;69168;42.708;23.286;2024-02-26T07:50:37;9.65;75.10
79698;SHT31;69168;42.708;23.286;2024-02-26T07:53:03;9.87;74.65
79698;SHT31;69168;42.708;23.286;2024-02-26T07:55:28;9.81;74.50
79698;SHT31;69168;42.708;23.286;2024-02-26T07:57:54;9.82;74.65
79698;SHT31;69168;42.708;23.286;2024-02-26T08:00:20;9.90;74.38
79698;SHT31;69168;42.708;23.286;2024-02-26T08:02:45;9.95;74.27
79698;SHT31;69168;42.708;23.286;2024-02-26T08:05:12;9.87;74.61
79698;SHT31;69168;42.708;23.286;2024-02-26T08:07:38;9.94;74.36
79698;SHT31;69168;42.708;23.286;2024-02-26T08:10:04;10.01;74.55
79698;SHT31;69168;42.708;23.286;2024-02-26T08:12:29;10.10;74.44
79698;SHT31;69168;42.708;23.286;2024-02-26T08:14:55;10.16;74.11
79698;SHT31;69168;42.708;23.286;2024-02-26T08:17:21;10.09;74.00
79698;SHT31;69168;42.708;23.286;2024-02-26T08:19:46;10.25;73.68
79698;SHT31;69168;42.708;23.286;2024-02-26T08:22:12;10.29;73.79
79698;SHT31;69168;42.708;23.286;2024-02-26T08:24:42;10.47;73.72
79698;SHT31;69168;42.708;23.286;2024-02-26T08:27:07;10.61;73.22
79698;SHT31;69168;42.708;23.286;2024-02-26T08:29:33;10.61;72.71
79698;SHT31;69168;42.708;23.286;2024-02-26T08:31:58;10.47;73.12
79698;SHT31;69168;42.708;23.286;2024-02-26T08:34:25;10.46;73.39
79698;SHT31;69168;42.708;23.286;2024-02-26T08:36:50;10.32;73.54
79698;SHT31;69168;42.708;23.286;2024-02-26T08:39:17;10.47;73.41
79698;SHT31;69168;42.708;23.286;2024-02-26T08:41:45;10.49;73.41
79698;SHT31;69168;42.708;23.286;2024-02-26T08:44:11;10.60;72.88
79698;SHT31;69168;42.708;23.286;2024-02-26T08:46:37;10.56;73.08
79698;SHT31;69168;42.708;23.286;2024-02-26T08:49:03;10.65;72.66
79698;SHT31;69168;42.708;23.286;2024-02-26T08:51:29;10.68;72.63
79698;SHT31;69168;42.708;23.286;2024-02-26T08:53:54;10.85;72.34
79698;SHT31;69168;42.708;23.286;2024-02-26T08:56:20;10.91;72.44
79698;SHT31;69168;42.708;23.286;2024-02-26T08:58:47;11.04;72.43
79698;SHT31;69168;42.708;23.286;2024-02-26T09:01:17;11.28;71.72
79698;SHT31;69168;42.708;23.286;2024-02-26T09:03:42;11.29;71.62
79698;SHT31;69168;42.708;23.286;2024-02-26T09:06:08;11.33;71.76
79698;SHT31;69168;42.708;23.286;2024-02-26T09:08:34;11.25;71.69
79698;SHT31;69168;42.708;23.286;2024-02-26T09:11:01;11.29;71.31
79698;SHT31;69168;42.708;23.286;2024-02-26T09:13:27;11.26;71.60
79698;SHT31;69168;42.708;23.286;2024-02-26T09:15:52;11.20;71.64
79698;SHT31;69168;42.708;23.286;2024-02-26T09:18:18;11.25;71.97
79698;SHT31;69168;42.708;23.286;2024-02-26T09:20:43;11.44;71.55
79698;SHT31;69168;42.708;23.286;2024-02-26T09:23:09;11.54;71.51
79698;SHT31;69168;42.708;23.286;2024-02-26T09:25:35;11.74;71.67
79698;SHT31;69168;42.708;23.286;2024-02-26T09:28:01;11.95;70.68
79698;SHT31;69168;42.708;23.286;2024-02-26T09:30:26;12.06;70.46
79698;SHT31;69168;42.708;23.286;2024-02-26T09:32:52;12.21;70.57
79698;SHT31;69168;42.708;23.286;2024-02-26T09:35:17;12.29;70.21
79698;SHT31;69168;42.708;23.286;2024-02-26T09:37:43;12.53;69.62
79698;SHT31;69168;42.708;23.286;2024-02-26T09:40:10;12.64;68.81
79698;SHT31;69168;42.708;23.286;2024-02-26T09:42:44;12.85;68.01
79698;SHT31;69168;42.708;23.286;2024-02-26T09:45:18;13.07;67.35
79698;SHT31;69168;42.708;23.286;2024-02-26T09:47:45;12.97;67.43
79698;SHT31;69168;42.708;23.286;2024-02-26T09:50:13;13.10;66.82
79698;SHT31;69168;42.708;23.286;2024-02-26T09:52:41;13.34;65.70
79698;SHT31;69168;42.708;23.286;2024-02-26T09:55:08;13.30;65.54
79698;SHT31;69168;42.708;23.286;2024-02-26T09:57:37;13.28;65.19
79698;SHT31;69168;42.708;23.286;2024-02-26T10:00:03;13.43;64.68
79698;SHT31;69168;42.708;23.286;2024-02-26T10:02:35;13.43;64.91
79698;SHT31;69168;42.708;23.286;2024-02-26T10:05:02;13.56;64.33
79698;SHT31;69168;42.708;23.286;2024-02-26T10:07:31;13.69;63.53
79698;SHT31;69168;42.708;23.286;2024-02-26T10:09:57;13.67;63.05
79698;SHT31;69168;42.708;23.286;2024-02-26T10:12:23;13.59;63.45
79698;SHT31;69168;42.708;23.286;2024-02-26T10:14:51;13.59;63.52
79698;SHT31;69168;42.708;23.286;2024-02-26T10:17:19;13.65;63.46
79698;SHT31;69168;42.708;23.286;2024-02-26T10:19:45;13.77;62.42
79698;SHT31;69168;42.708;23.286;2024-02-26T10:22:11;13.77;62.29
79698;SHT31;69168;42.708;23.286;2024-02-26T10:24:36;14.14;59.51
79698;SHT31;69168;42.708;23.286;2024-02-26T10:27:02;13.93;60.47
79698;SHT31;69168;42.708;23.286;2024-02-26T10:29:28;14.03;60.35
79698;SHT31;69168;42.708;23.286;2024-02-26T10:31:54;13.97;60.18
79698;SHT31;69168;42.708;23.286;2024-02-26T10:34:20;13.98;60.20
79698;SHT31;69168;42.708;23.286;2024-02-26T10:36:45;14.01;60.28
79698;SHT31;69168;42.708;23.286;2024-02-26T10:39:14;13.97;60.72
79698;SHT31;69168;42.708;23.286;2024-02-26T10:41:41;14.07;60.12
79698;SHT31;69168;42.708;23.286;2024-02-26T10:44:11;13.98;60.46
79698;SHT31;69168;42.708;23.286;2024-02-26T10:46:39;14.11;59.77
79698;SHT31;69168;42.708;23.286;2024-02-26T10:49:05;14.22;58.93
79698;SHT31;69168;42.708;23.286;2024-02-26T10:51:35;14.17;58.72
79698;SHT31;69168;42.708;23.286;2024-02-26T10:54:04;14.22;58.77
79698;SHT31;69168;42.708;23.286;2024-02-26T10:56:34;14.22;58.91
79698;SHT31;69168;42.708;23.286;2024-02-26T10:59:00;14.12;59.43
79698;SHT31;69168;42.708;23.286;2024-02-26T11:01:27;14.14;59.25
79698;SHT31;69168;42.708;23.286;2024-02-26T11:03:57;14.21;58.95
79698;SHT31;69168;42.708;23.286;2024-02-26T11:06:26;14.29;58.66
79698;SHT31;69168;42.708;23.286;2024-02-26T11:08:53;14.26;58.85
79698;SHT31;69168;42.708;23.286;2024-02-26T11:11:19;14.40;57.61
79698;SHT31;69168;42.708;23.286;2024-02-26T11:13:46;14.43;57.70
79698;SHT31;69168;42.708;23.286;2024-02-26T11:16:17;14.33;58.37
79698;SHT31;69168;42.708;23.286;2024-02-26T11:18:43;14.36;58.29
79698;SHT31;69168;42.708;23.286;2024-02-26T11:21:15;14.40;58.14
79698;SHT31;69168;42.708;23.286;2024-02-26T11:23:41;14.33;58.20
79698;SHT31;69168;42.708;23.286;2024-02-26T11:26:07;14.48;57.80
79698;SHT31;69168;42.708;23.286;2024-02-26T11:28:35;14.35;57.98
79698;SHT31;69168;42.708;23.286;2024-02-26T11:31:02;14.35;58.30
79698;SHT31;69168;42.708;23.286;2024-02-26T11:33:30;14.32;57.60
79698;SHT31;69168;42.708;23.286;2024-02-26T11:35:55;14.28;57.97
79698;SHT31;69168;42.708;23.286;2024-02-26T11:38:24;14.43;57.99
79698;SHT31;69168;42.708;23.286;2024-02-26T11:40:51;14.50;57.63
79698;SHT31;69168;42.708;23.286;2024-02-26T11:43:18;14.48;57.86
79698;SHT31;69168;42.708;23.286;2024-02-26T11:45:49;14.48;57.39
79698;SHT31;69168;42.708;23.286;2024-02-26T11:48:23;14.49;56.80
79698;SHT31;69168;42.708;23.286;2024-02-26T11:50:52;14.59;56.97
79698;SHT31;69168;42.708;23.286;2024-02-26T11:53:27;14.63;57.48
79698;SHT31;69168;42.708;23.286;2024-02-26T11:58:39;14.76;56.56
79698;SHT31;69168;42.708;23.286;2024-02-26T12:01:05;14.86;56.07
79698;SHT31;69168;42.708;23.286;2024-02-26T12:03:31;14.91;55.58
79698;SHT31;69168;42.708;23.286;2024-02-26T12:05:57;14.87;55.54
79698;SHT31;69168;42.708;23.286;2024-02-26T12:08:23;15.05;54.29
79698;SHT31;69168;42.708;23.286;2024-02-26T12:10:50;14.98;54.87
79698;SHT31;69168;42.708;23.286;2024-02-26T12:13:29;14.98;54.69
79698;SHT31;69168;42.708;23.286;2024-02-26T12:15:57;15.15;54.52
79698;SHT31;69168;42.708;23.286;2024-02-26T12:18:23;15.20;54.36
79698;SHT31;69168;42.708;23.286;2024-02-26T12:21:02;15.24;54.11
79698;SHT31;69168;42.708;23.286;2024-02-26T12:23:28;15.24;54.12
79698;SHT31;69168;42.708;23.286;2024-02-26T12:26:01;15.27;53.18
79698;SHT31;69168;42.708;23.286;2024-02-26T12:28:30;15.15;52.92
79698;SHT31;69168;42.708;23.286;2024-02-26T12:30:56;15.21;53.29
79698;SHT31;69168;42.708;23.286;2024-02-26T12:33:25;15.38;52.66
79698;SHT31;69168;42.708;23.286;2024-02-26T12:35:52;15.45;51.92
79698;SHT31;69168;42.708;23.286;2024-02-26T12:38:18;15.46;51.69
79698;SHT31;69168;42.708;23.286;2024-02-26T12:40:44;15.56;51.71
79698;SHT31;69168;42.708;23.286;2024-02-26T12:43:10;15.62;51.41
79698;SHT31;69168;42.708;23.286;2024-02-26T12:45:40;15.71;50.93
79698;SHT31;69168;42.708;23.286;2024-02-26T12:48:06;15.69;50.96
79698;SHT31;69168;42.708;23.286;2024-02-26T12:50:32;15.85;50.83
79698;SHT31;69168;42.708;23.286;2024-02-26T12:52:58;15.96;50.62
79698;SHT31;69168;42.708;23.286;2024-02-26T12:55:24;16.08;49.44
79698;SHT31;69168;42.708;23.286;2024-02-26T12:57:51;16.18;49.88
79698;SHT31;69168;42.708;23.286;2024-02-26T13:00:20;16.20;49.20
79698;SHT31;69168;42.708;23.286;2024-02-26T13:02:47;16.26;49.57
79698;SHT31;69168;42.708;23.286;2024-02-26T13:05:14;16.29;48.81
79698;SHT31;69168;42.708;23.286;2024-02-26T13:07:45;16.42;48.34
79698;SHT31;69168;42.708;23.286;2024-02-26T13:10:13;16.31;48.62
79698;SHT31;69168;42.708;23.286;2024-02-26T13:12:46;16.20;48.76
79698;SHT31;69168;42.708;23.286;2024-02-26T13:15:15;16.11;49.07
79698;SHT31;69168;42.708;23.286;2024-02-26T13:17:41;16.20;49.19
79698;SHT31;69168;42.708;23.286;2024-02-26T13:20:08;16.28;49.00
79698;SHT31;69168;42.708;23.286;2024-02-26T13:22:35;16.25;48.93
79698;SHT31;69168;42.708;23.286;2024-02-26T13:25:01;16.04;49.08
79698;SHT31;69168;42.708;23.286;2024-02-26T13:27:31;16.04;49.14
79698;SHT31;69168;42.708;23.286;2024-02-26T13:30:09;16.01;49.68
79698;SHT31;69168;42.708;23.286;2024-02-26T13:32:40;16.00;49.95
79698;SHT31;69168;42.708;23.286;2024-02-26T13:37:32;15.76;50.41
79698;SHT31;69168;42.708;23.286;2024-02-26T13:39:57;15.77;50.17
79698;SHT31;69168;42.708;23.286;2024-02-26T13:42:23;15.79;49.61
79698;SHT31;69168;42.708;23.286;2024-02-26T13:44:48;15.85;49.42
79698;SHT31;69168;42.708;23.286;2024-02-26T13:47:14;15.83;49.45
79698;SHT31;69168;42.708;23.286;2024-02-26T13:49:39;15.74;49.97
79698;SHT31;69168;42.708;23.286;2024-02-26T13:52:05;15.66;50.18
79698;SHT31;69168;42.708;23.286;2024-02-26T13:54:31;15.91;49.23
79698;SHT31;69168;42.708;23.286;2024-02-26T13:56:56;15.82;49.36
79698;SHT31;69168;42.708;23.286;2024-02-26T13:59:22;15.67;50.04
79698;SHT31;69168;42.708;23.286;2024-02-26T14:01:47;15.62;49.22
79698;SHT31;69168;42.708;23.286;2024-02-26T14:04:13;15.66;48.72
79698;SHT31;69168;42.708;23.286;2024-02-26T14:06:39;15.53;49.37
79698;SHT31;69168;42.708;23.286;2024-02-26T14:09:05;15.52;49.55
79698;SHT31;69168;42.708;23.286;2024-02-26T14:11:30;15.48;49.60
79698;SHT31;69168;42.708;23.286;2024-02-26T14:13:56;15.43;50.06
79698;SHT31;69168;42.708;23.286;2024-02-26T14:16:22;15.42;49.88
79698;SHT31;69168;42.708;23.286;2024-02-26T14:18:47;15.55;49.21
79698;SHT31;69168;42.708;23.286;2024-02-26T14:21:13;15.49;49.29
79698;SHT31;69168;42.708;23.286;2024-02-26T14:23:39;15.52;49.31
79698;SHT31;69168;42.708;23.286;2024-02-26T14:26:05;15.48;49.42
79698;SHT31;69168;42.708;23.286;2024-02-26T14:28:30;15.48;49.48
79698;SHT31;69168;42.708;23.286;2024-02-26T14:30:57;15.39;49.74
79698;SHT31;69168;42.708;23.286;2024-02-26T14:33:22;15.45;49.17
79698;SHT31;69168;42.708;23.286;2024-02-26T14:35:48;15.48;48.29
79698;SHT31;69168;42.708;23.286;2024-02-26T14:38:13;15.62;48.16
79698;SHT31;69168;42.708;23.286;2024-02-26T14:40:39;15.55;48.40
79698;SHT31;69168;42.708;23.286;2024-02-26T14:43:04;15.41;48.18
79698;SHT31;69168;42.708;23.286;2024-02-26T14:45:30;15.39;48.25
79698;SHT31;69168;42.708;23.286;2024-02-26T14:47:57;15.27;48.59
79698;SHT31;69168;42.708;23.286;2024-02-26T14:50:22;15.42;47.89
79698;SHT31;69168;42.708;23.286;2024-02-26T14:52:48;15.21;48.98
79698;SHT31;69168;42.708;23.286;2024-02-26T14:55:13;15.41;47.97
79698;SHT31;69168;42.708;23.286;2024-02-26T14:57:39;15.20;48.75
79698;SHT31;69168;42.708;23.286;2024-02-26T15:00:05;15.10;49.75
79698;SHT31;69168;42.708;23.286;2024-02-26T15:02:32;15.12;49.70
79698;SHT31;69168;42.708;23.286;2024-02-26T15:04:57;15.08;49.57
79698;SHT31;69168;42.708;23.286;2024-02-26T15:07:23;15.07;49.58
79698;SHT31;69168;42.708;23.286;2024-02-26T15:09:48;14.97;49.59
79698;SHT31;69168;42.708;23.286;2024-02-26T15:12:14;15.04;48.79
79698;SHT31;69168;42.708;23.286;2024-02-26T15:14:40;14.90;49.08
79698;SHT31;69168;42.708;23.286;2024-02-26T15:17:06;14.86;48.74
79698;SHT31;69168;42.708;23.286;2024-02-26T15:19:35;14.88;48.21
79698;SHT31;69168;42.708;23.286;2024-02-26T15:22:01;14.83;48.55
79698;SHT31;69168;42.708;23.286;2024-02-26T15:24:26;14.88;48.01